sensor_id;sensor_type;location;lat;lon;timestamp;P1;durP1;ratioP1;P2;durP2;ratioP2
11568;SDS011;5840;46.894;15.542;2022-08-18T00:01:54;9.03;;;8.37;;
11568;SDS011;5840;46.894;15.542;2022-08-18T00:04:26;8.63;;;7.93;;
11568;SDS011;5840;46.894;15.542;2022-08-18T00:06:53;8.47;;;7.50;;
11568;SDS011;5840;46.894;15.542;2022-08-18T00:09:20;7.83;;;7.23;;
11568;SDS011;5840;46.894;15.542;2022-08-18T00:11:47;8.33;;;7.73;;
11568;SDS011;5840;46.894;15.542;2022-08-18T00:14:16;8.40;;;7.70;;
11568;SDS011;5840;46.894;15.542;2022-08-18T00:16:44;8.40;;;7.80;;
11568;SDS011;5840;46.894;15.542;2022-08-18T00:19:11;8.60;;;8.00;;
11568;SDS011;5840;46.894;15.542;2022-08-18T00:21:38;8.73;;;8.13;;
11568;SDS011;5840;46.894;15.542;2022-08-18T00:24:05;8.90;;;8.13;;
11568;SDS011;5840;46.894;15.542;2022-08-18T00:26:32;7.80;;;7.30;;
11568;SDS011;5840;46.894;15.542;2022-08-18T00:28:59;8.50;;;7.90;;
11568;SDS011;5840;46.894;15.542;2022-08-18T00:31:27;7.83;;;7.23;;
11568;SDS011;5840;46.894;15.542;2022-08-18T00:33:55;7.63;;;7.03;;
11568;SDS011;5840;46.894;15.542;2022-08-18T00:36:22;7.40;;;6.80;;
11568;SDS011;5840;46.894;15.542;2022-08-18T00:38:49;8.40;;;7.77;;
11568;SDS011;5840;46.894;15.542;2022-08-18T00:41:16;8.77;;;8.03;;
11568;SDS011;5840;46.894;15.542;2022-08-18T00:43:44;7.73;;;7.10;;
11568;SDS011;5840;46.894;15.542;2022-08-18T00:46:13;7.57;;;7.00;;
11568;SDS011;5840;46.894;15.542;2022-08-18T00:48:43;7.70;;;7.20;;
11568;SDS011;5840;46.894;15.542;2022-08-18T00:51:11;8.17;;;7.47;;
11568;SDS011;5840;46.894;15.542;2022-08-18T00:53:42;7.40;;;6.90;;
11568;SDS011;5840;46.894;15.542;2022-08-18T00:56:12;8.00;;;7.30;;
11568;SDS011;5840;46.894;15.542;2022-08-18T00:58:43;8.67;;;7.97;;
11568;SDS011;5840;46.894;15.542;2022-08-18T01:01:15;7.90;;;7.33;;
11568;SDS011;5840;46.894;15.542;2022-08-18T01:03:46;8.20;;;7.70;;
11568;SDS011;5840;46.894;15.542;2022-08-18T01:06:19;8.20;;;7.70;;
11568;SDS011;5840;46.894;15.542;2022-08-18T01:08:51;8.70;;;7.97;;
11568;SDS011;5840;46.894;15.542;2022-08-18T01:11:20;8.10;;;7.50;;
11568;SDS011;5840;46.894;15.542;2022-08-18T01:13:47;8.43;;;7.83;;
11568;SDS011;5840;46.894;15.542;2022-08-18T01:16:14;9.13;;;8.33;;
11568;SDS011;5840;46.894;15.542;2022-08-18T01:19:08;8.73;;;7.90;;
11568;SDS011;5840;46.894;15.542;2022-08-18T01:21:54;8.70;;;8.10;;
11568;SDS011;5840;46.894;15.542;2022-08-18T01:24:29;8.70;;;7.90;;
11568;SDS011;5840;46.894;15.542;2022-08-18T01:27:18;8.37;;;7.77;;
11568;SDS011;5840;46.894;15.542;2022-08-18T01:29:45;9.43;;;8.80;;
11568;SDS011;5840;46.894;15.542;2022-08-18T01:32:13;9.03;;;8.43;;
11568;SDS011;5840;46.894;15.542;2022-08-18T01:34:43;8.87;;;8.20;;
11568;SDS011;5840;46.894;15.542;2022-08-18T01:37:12;9.47;;;8.67;;
11568;SDS011;5840;46.894;15.542;2022-08-18T01:39:41;9.97;;;9.17;;
11568;SDS011;5840;46.894;15.542;2022-08-18T01:42:08;9.63;;;8.93;;
11568;SDS011;5840;46.894;15.542;2022-08-18T01:44:36;9.67;;;8.73;;
11568;SDS011;5840;46.894;15.542;2022-08-18T01:47:05;10.27;;;9.47;;
11568;SDS011;5840;46.894;15.542;2022-08-18T01:49:34;10.10;;;9.27;;
11568;SDS011;5840;46.894;15.542;2022-08-18T01:52:01;9.70;;;9.10;;
11568;SDS011;5840;46.894;15.542;2022-08-18T01:54:31;9.60;;;8.90;;
11568;SDS011;5840;46.894;15.542;2022-08-18T01:56:59;9.30;;;8.60;;
11568;SDS011;5840;46.894;15.542;2022-08-18T01:59:27;9.17;;;8.47;;
11568;SDS011;5840;46.894;15.542;2022-08-18T02:01:54;10.50;;;9.40;;
11568;SDS011;5840;46.894;15.542;2022-08-18T02:04:25;9.10;;;8.50;;
11568;SDS011;5840;46.894;15.542;2022-08-18T02:06:57;8.80;;;8.20;;
11568;SDS011;5840;46.894;15.542;2022-08-18T02:09:25;8.87;;;8.27;;
11568;SDS011;5840;46.894;15.542;2022-08-18T02:11:52;9.87;;;9.10;;
11568;SDS011;5840;46.894;15.542;2022-08-18T02:14:21;9.63;;;8.93;;
11568;SDS011;5840;46.894;15.542;2022-08-18T02:16:48;10.07;;;9.23;;
11568;SDS011;5840;46.894;15.542;2022-08-18T02:19:15;9.40;;;8.70;;
11568;SDS011;5840;46.894;15.542;2022-08-18T02:21:42;9.67;;;8.87;;
11568;SDS011;5840;46.894;15.542;2022-08-18T02:24:08;10.00;;;9.30;;
11568;SDS011;5840;46.894;15.542;2022-08-18T02:26:35;9.40;;;8.80;;
11568;SDS011;5840;46.894;15.542;2022-08-18T02:29:02;9.30;;;8.70;;
11568;SDS011;5840;46.894;15.542;2022-08-18T02:31:31;9.73;;;9.03;;
11568;SDS011;5840;46.894;15.542;2022-08-18T02:33:57;9.40;;;8.70;;
11568;SDS011;5840;46.894;15.542;2022-08-18T02:36:24;9.20;;;8.60;;
11568;SDS011;5840;46.894;15.542;2022-08-18T02:38:52;9.27;;;8.63;;
11568;SDS011;5840;46.894;15.542;2022-08-18T02:41:19;10.13;;;9.27;;
11568;SDS011;5840;46.894;15.542;2022-08-18T02:43:47;9.47;;;8.57;;
11568;SDS011;5840;46.894;15.542;2022-08-18T02:46:14;9.47;;;8.67;;
11568;SDS011;5840;46.894;15.542;2022-08-18T02:48:42;9.27;;;8.60;;
11568;SDS011;5840;46.894;15.542;2022-08-18T02:51:10;9.97;;;9.07;;
11568;SDS011;5840;46.894;15.542;2022-08-18T02:53:39;9.67;;;8.87;;
11568;SDS011;5840;46.894;15.542;2022-08-18T02:56:07;9.80;;;9.13;;
11568;SDS011;5840;46.894;15.542;2022-08-18T02:58:52;10.03;;;9.33;;
11568;SDS011;5840;46.894;15.542;2022-08-18T03:01:20;11.60;;;10.73;;
11568;SDS011;5840;46.894;15.542;2022-08-18T03:03:50;10.33;;;9.53;;
11568;SDS011;5840;46.894;15.542;2022-08-18T03:06:18;9.20;;;8.60;;
11568;SDS011;5840;46.894;15.542;2022-08-18T03:08:46;9.37;;;8.67;;
11568;SDS011;5840;46.894;15.542;2022-08-18T03:11:14;9.37;;;8.73;;
11568;SDS011;5840;46.894;15.542;2022-08-18T03:13:41;9.03;;;8.33;;
11568;SDS011;5840;46.894;15.542;2022-08-18T03:16:09;10.07;;;9.17;;
11568;SDS011;5840;46.894;15.542;2022-08-18T03:18:36;8.97;;;8.27;;
11568;SDS011;5840;46.894;15.542;2022-08-18T03:21:06;8.73;;;8.13;;
11568;SDS011;5840;46.894;15.542;2022-08-18T03:23:35;9.17;;;8.37;;
11568;SDS011;5840;46.894;15.542;2022-08-18T03:26:04;8.90;;;8.37;;
11568;SDS011;5840;46.894;15.542;2022-08-18T03:28:31;10.10;;;9.30;;
11568;SDS011;5840;46.894;15.542;2022-08-18T03:30:58;9.13;;;8.43;;
11568;SDS011;5840;46.894;15.542;2022-08-18T03:33:25;9.27;;;8.47;;
11568;SDS011;5840;46.894;15.542;2022-08-18T03:35:52;9.50;;;8.80;;
11568;SDS011;5840;46.894;15.542;2022-08-18T03:38:20;9.20;;;8.50;;
11568;SDS011;5840;46.894;15.542;2022-08-18T03:40:49;9.63;;;8.83;;
11568;SDS011;5840;46.894;15.542;2022-08-18T03:43:16;8.23;;;7.73;;
11568;SDS011;5840;46.894;15.542;2022-08-18T03:45:44;9.67;;;8.83;;
11568;SDS011;5840;46.894;15.542;2022-08-18T03:48:11;10.10;;;9.30;;
11568;SDS011;5840;46.894;15.542;2022-08-18T03:50:38;9.03;;;8.23;;
11568;SDS011;5840;46.894;15.542;2022-08-18T03:53:05;8.77;;;8.17;;
11568;SDS011;5840;46.894;15.542;2022-08-18T03:55:33;8.37;;;7.77;;
11568;SDS011;5840;46.894;15.542;2022-08-18T03:58:00;8.73;;;8.10;;
11568;SDS011;5840;46.894;15.542;2022-08-18T04:00:27;9.03;;;8.23;;
11568;SDS011;5840;46.894;15.542;2022-08-18T04:02:55;8.60;;;8.00;;
11568;SDS011;5840;46.894;15.542;2022-08-18T04:05:23;8.87;;;8.17;;
11568;SDS011;5840;46.894;15.542;2022-08-18T04:07:50;9.00;;;8.40;;
11568;SDS011;5840;46.894;15.542;2022-08-18T04:10:18;10.57;;;9.57;;
11568;SDS011;5840;46.894;15.542;2022-08-18T04:12:47;10.20;;;9.37;;
11568;SDS011;5840;46.894;15.542;2022-08-18T04:15:13;9.60;;;8.87;;
11568;SDS011;5840;46.894;15.542;2022-08-18T04:17:40;10.47;;;9.23;;
11568;SDS011;5840;46.894;15.542;2022-08-18T04:20:09;9.53;;;8.73;;
11568;SDS011;5840;46.894;15.542;2022-08-18T04:22:37;9.30;;;8.70;;
11568;SDS011;5840;46.894;15.542;2022-08-18T04:25:06;9.40;;;8.70;;
11568;SDS011;5840;46.894;15.542;2022-08-18T04:27:34;9.10;;;8.40;;
11568;SDS011;5840;46.894;15.542;2022-08-18T04:30:05;9.43;;;8.67;;
11568;SDS011;5840;46.894;15.542;2022-08-18T04:32:33;9.83;;;9.00;;
11568;SDS011;5840;46.894;15.542;2022-08-18T04:35:00;9.67;;;8.87;;
11568;SDS011;5840;46.894;15.542;2022-08-18T04:37:27;9.50;;;8.77;;
11568;SDS011;5840;46.894;15.542;2022-08-18T04:39:56;9.30;;;8.50;;
11568;SDS011;5840;46.894;15.542;2022-08-18T04:42:24;8.90;;;8.30;;
11568;SDS011;5840;46.894;15.542;2022-08-18T04:44:51;9.30;;;8.70;;
11568;SDS011;5840;46.894;15.542;2022-08-18T04:47:19;9.80;;;9.07;;
11568;SDS011;5840;46.894;15.542;2022-08-18T04:49:46;9.80;;;8.90;;
11568;SDS011;5840;46.894;15.542;2022-08-18T04:52:14;9.50;;;8.80;;
11568;SDS011;5840;46.894;15.542;2022-08-18T04:54:59;9.70;;;8.97;;
11568;SDS011;5840;46.894;15.542;2022-08-18T04:57:27;9.30;;;8.60;;
11568;SDS011;5840;46.894;15.542;2022-08-18T04:59:57;8.73;;;8.13;;
11568;SDS011;5840;46.894;15.542;2022-08-18T05:02:26;8.93;;;8.23;;
11568;SDS011;5840;46.894;15.542;2022-08-18T05:04:52;8.70;;;8.10;;
11568;SDS011;5840;46.894;15.542;2022-08-18T05:07:20;9.20;;;8.60;;
11568;SDS011;5840;46.894;15.542;2022-08-18T05:09:47;8.40;;;7.80;;
11568;SDS011;5840;46.894;15.542;2022-08-18T05:12:16;9.87;;;9.07;;
11568;SDS011;5840;46.894;15.542;2022-08-18T05:14:43;9.57;;;8.73;;
11568;SDS011;5840;46.894;15.542;2022-08-18T05:17:11;8.80;;;8.20;;
11568;SDS011;5840;46.894;15.542;2022-08-18T05:19:40;8.20;;;7.70;;
11568;SDS011;5840;46.894;15.542;2022-08-18T05:22:08;8.37;;;7.87;;
11568;SDS011;5840;46.894;15.542;2022-08-18T05:24:37;9.63;;;8.93;;
11568;SDS011;5840;46.894;15.542;2022-08-18T05:27:05;9.37;;;8.77;;
11568;SDS011;5840;46.894;15.542;2022-08-18T05:29:32;8.87;;;8.27;;
11568;SDS011;5840;46.894;15.542;2022-08-18T05:32:01;8.70;;;8.00;;
11568;SDS011;5840;46.894;15.542;2022-08-18T05:34:30;8.80;;;8.20;;
11568;SDS011;5840;46.894;15.542;2022-08-18T05:37:06;8.27;;;7.77;;
11568;SDS011;5840;46.894;15.542;2022-08-18T05:39:44;8.07;;;7.57;;
11568;SDS011;5840;46.894;15.542;2022-08-18T05:42:20;9.77;;;8.97;;
11568;SDS011;5840;46.894;15.542;2022-08-18T05:44:49;9.33;;;8.53;;
11568;SDS011;5840;46.894;15.542;2022-08-18T05:47:18;9.67;;;8.77;;
11568;SDS011;5840;46.894;15.542;2022-08-18T05:49:49;9.57;;;8.87;;
11568;SDS011;5840;46.894;15.542;2022-08-18T05:52:21;8.53;;;7.93;;
11568;SDS011;5840;46.894;15.542;2022-08-18T05:54:54;8.80;;;8.20;;
11568;SDS011;5840;46.894;15.542;2022-08-18T05:57:43;8.43;;;7.83;;
11568;SDS011;5840;46.894;15.542;2022-08-18T06:00:15;8.53;;;8.00;;
11568;SDS011;5840;46.894;15.542;2022-08-18T06:02:43;8.20;;;7.67;;
11568;SDS011;5840;46.894;15.542;2022-08-18T06:05:19;9.30;;;8.57;;
11568;SDS011;5840;46.894;15.542;2022-08-18T06:07:53;8.60;;;7.80;;
11568;SDS011;5840;46.894;15.542;2022-08-18T06:10:22;8.60;;;7.97;;
11568;SDS011;5840;46.894;15.542;2022-08-18T06:12:50;9.23;;;8.33;;
11568;SDS011;5840;46.894;15.542;2022-08-18T06:15:21;8.77;;;8.03;;
11568;SDS011;5840;46.894;15.542;2022-08-18T06:21:05;9.57;;;8.77;;
11568;SDS011;5840;46.894;15.542;2022-08-18T06:23:50;8.93;;;8.30;;
11568;SDS011;5840;46.894;15.542;2022-08-18T06:26:29;8.90;;;8.20;;
11568;SDS011;5840;46.894;15.542;2022-08-18T06:29:05;9.00;;;8.40;;
11568;SDS011;5840;46.894;15.542;2022-08-18T06:31:43;9.00;;;8.30;;
11568;SDS011;5840;46.894;15.542;2022-08-18T06:34:16;8.70;;;8.00;;
11568;SDS011;5840;46.894;15.542;2022-08-18T06:36:51;8.87;;;8.07;;
11568;SDS011;5840;46.894;15.542;2022-08-18T06:39:25;7.90;;;7.40;;
11568;SDS011;5840;46.894;15.542;2022-08-18T06:41:57;8.10;;;7.50;;
11568;SDS011;5840;46.894;15.542;2022-08-18T06:44:25;8.80;;;8.07;;
11568;SDS011;5840;46.894;15.542;2022-08-18T06:46:58;9.00;;;8.20;;
11568;SDS011;5840;46.894;15.542;2022-08-18T06:49:34;8.97;;;8.10;;
11568;SDS011;5840;46.894;15.542;2022-08-18T06:52:24;9.97;;;8.93;;
11568;SDS011;5840;46.894;15.542;2022-08-18T06:54:57;11.30;;;8.97;;
11568;SDS011;5840;46.894;15.542;2022-08-18T06:57:27;9.63;;;8.87;;
11568;SDS011;5840;46.894;15.542;2022-08-18T06:59:57;8.73;;;7.93;;
11568;SDS011;5840;46.894;15.542;2022-08-18T07:02:43;9.67;;;8.63;;
11568;SDS011;5840;46.894;15.542;2022-08-18T07:05:18;9.23;;;8.43;;
11568;SDS011;5840;46.894;15.542;2022-08-18T07:08:02;8.63;;;7.87;;
11568;SDS011;5840;46.894;15.542;2022-08-18T07:10:43;8.80;;;8.10;;
11568;SDS011;5840;46.894;15.542;2022-08-18T07:13:19;8.77;;;7.87;;
11568;SDS011;5840;46.894;15.542;2022-08-18T07:15:49;9.10;;;8.30;;
11568;SDS011;5840;46.894;15.542;2022-08-18T07:18:20;9.07;;;8.27;;
11568;SDS011;5840;46.894;15.542;2022-08-18T07:20:50;9.23;;;8.43;;
11568;SDS011;5840;46.894;15.542;2022-08-18T07:23:22;9.63;;;7.97;;
11568;SDS011;5840;46.894;15.542;2022-08-18T07:25:57;8.50;;;7.87;;
11568;SDS011;5840;46.894;15.542;2022-08-18T07:28:31;7.90;;;7.20;;
11568;SDS011;5840;46.894;15.542;2022-08-18T07:31:08;7.50;;;6.90;;
11568;SDS011;5840;46.894;15.542;2022-08-18T07:33:41;7.83;;;7.23;;
11568;SDS011;5840;46.894;15.542;2022-08-18T07:36:11;7.13;;;6.53;;
11568;SDS011;5840;46.894;15.542;2022-08-18T07:38:41;6.57;;;5.87;;
11568;SDS011;5840;46.894;15.542;2022-08-18T07:41:15;6.10;;;5.50;;
11568;SDS011;5840;46.894;15.542;2022-08-18T07:43:49;6.67;;;6.17;;
11568;SDS011;5840;46.894;15.542;2022-08-18T07:46:33;8.87;;;6.97;;
11568;SDS011;5840;46.894;15.542;2022-08-18T07:49:03;7.27;;;6.57;;
11568;SDS011;5840;46.894;15.542;2022-08-18T07:51:33;6.80;;;6.20;;
11568;SDS011;5840;46.894;15.542;2022-08-18T07:54:12;6.70;;;5.93;;
11568;SDS011;5840;46.894;15.542;2022-08-18T07:56:49;6.87;;;6.23;;
11568;SDS011;5840;46.894;15.542;2022-08-18T07:59:25;6.90;;;6.23;;
11568;SDS011;5840;46.894;15.542;2022-08-18T08:02:02;6.60;;;5.93;;
11568;SDS011;5840;46.894;15.542;2022-08-18T08:04:47;6.73;;;6.00;;
11568;SDS011;5840;46.894;15.542;2022-08-18T08:07:28;7.90;;;6.33;;
11568;SDS011;5840;46.894;15.542;2022-08-18T08:10:00;6.87;;;6.17;;
11568;SDS011;5840;46.894;15.542;2022-08-18T08:12:49;6.67;;;6.07;;
11568;SDS011;5840;46.894;15.542;2022-08-18T08:15:24;6.33;;;5.77;;
11568;SDS011;5840;46.894;15.542;2022-08-18T08:17:58;6.47;;;5.80;;
11568;SDS011;5840;46.894;15.542;2022-08-18T08:20:35;6.47;;;5.90;;
11568;SDS011;5840;46.894;15.542;2022-08-18T08:23:10;9.30;;;7.10;;
11568;SDS011;5840;46.894;15.542;2022-08-18T08:25:47;6.97;;;5.87;;
11568;SDS011;5840;46.894;15.542;2022-08-18T08:28:25;7.07;;;6.07;;
11568;SDS011;5840;46.894;15.542;2022-08-18T08:31:02;6.80;;;6.10;;
11568;SDS011;5840;46.894;15.542;2022-08-18T08:33:35;5.90;;;5.40;;
11568;SDS011;5840;46.894;15.542;2022-08-18T08:36:08;6.47;;;5.73;;
11568;SDS011;5840;46.894;15.542;2022-08-18T08:38:41;6.43;;;5.57;;
11568;SDS011;5840;46.894;15.542;2022-08-18T08:41:12;6.63;;;5.40;;
11568;SDS011;5840;46.894;15.542;2022-08-18T08:43:48;6.37;;;4.67;;
11568;SDS011;5840;46.894;15.542;2022-08-18T08:46:20;5.23;;;4.80;;
11568;SDS011;5840;46.894;15.542;2022-08-18T08:48:50;9.80;;;4.70;;
11568;SDS011;5840;46.894;15.542;2022-08-18T08:51:26;5.60;;;4.97;;
11568;SDS011;5840;46.894;15.542;2022-08-18T08:53:58;7.97;;;5.03;;
11568;SDS011;5840;46.894;15.542;2022-08-18T08:56:33;7.27;;;4.77;;
11568;SDS011;5840;46.894;15.542;2022-08-18T08:59:06;5.40;;;4.60;;
11568;SDS011;5840;46.894;15.542;2022-08-18T09:01:36;8.73;;;4.83;;
11568;SDS011;5840;46.894;15.542;2022-08-18T09:04:13;5.20;;;3.93;;
11568;SDS011;5840;46.894;15.542;2022-08-18T09:06:47;6.00;;;4.70;;
11568;SDS011;5840;46.894;15.542;2022-08-18T09:09:31;6.10;;;4.40;;
11568;SDS011;5840;46.894;15.542;2022-08-18T09:12:19;5.93;;;4.73;;
11568;SDS011;5840;46.894;15.542;2022-08-18T09:15:16;5.90;;;4.77;;
11568;SDS011;5840;46.894;15.542;2022-08-18T09:21:00;7.10;;;5.03;;
11568;SDS011;5840;46.894;15.542;2022-08-18T09:23:38;5.97;;;5.20;;
11568;SDS011;5840;46.894;15.542;2022-08-18T09:26:37;6.07;;;4.95;;
11568;SDS011;5840;46.894;15.542;2022-08-18T09:29:14;6.77;;;5.20;;
11568;SDS011;5840;46.894;15.542;2022-08-18T09:31:47;11.32;;;5.25;;
11568;SDS011;5840;46.894;15.542;2022-08-18T09:37:10;7.50;;;5.38;;
11568;SDS011;5840;46.894;15.542;2022-08-18T09:39:43;7.43;;;4.97;;
11568;SDS011;5840;46.894;15.542;2022-08-18T09:42:43;7.78;;;5.10;;
11568;SDS011;5840;46.894;15.542;2022-08-18T09:48:21;6.18;;;4.60;;
11568;SDS011;5840;46.894;15.542;2022-08-18T09:50:57;8.38;;;4.90;;
11568;SDS011;5840;46.894;15.542;2022-08-18T09:57:04;6.70;;;5.10;;
11568;SDS011;5840;46.894;15.542;2022-08-18T09:59:55;7.85;;;4.65;;
11568;SDS011;5840;46.894;15.542;2022-08-18T10:05:35;6.97;;;4.15;;
11568;SDS011;5840;46.894;15.542;2022-08-18T10:10:59;9.23;;;4.78;;
11568;SDS011;5840;46.894;15.542;2022-08-18T10:13:44;7.53;;;4.18;;
11568;SDS011;5840;46.894;15.542;2022-08-18T10:16:17;11.27;;;4.55;;
11568;SDS011;5840;46.894;15.542;2022-08-18T10:18:55;8.70;;;4.50;;
11568;SDS011;5840;46.894;15.542;2022-08-18T10:24:41;9.82;;;4.50;;
11568;SDS011;5840;46.894;15.542;2022-08-18T10:27:34;8.40;;;4.40;;
11568;SDS011;5840;46.894;15.542;2022-08-18T10:33:10;12.30;;;5.15;;
11568;SDS011;5840;46.894;15.542;2022-08-18T10:35:59;10.65;;;5.13;;
11568;SDS011;5840;46.894;15.542;2022-08-18T10:38:27;11.32;;;4.70;;
11568;SDS011;5840;46.894;15.542;2022-08-18T10:41:09;14.82;;;5.72;;
11568;SDS011;5840;46.894;15.542;2022-08-18T10:43:44;10.15;;;4.40;;
11568;SDS011;5840;46.894;15.542;2022-08-18T10:46:14;11.65;;;4.40;;
11568;SDS011;5840;46.894;15.542;2022-08-18T10:48:45;10.15;;;4.80;;
11568;SDS011;5840;46.894;15.542;2022-08-18T10:51:26;8.88;;;4.18;;
11568;SDS011;5840;46.894;15.542;2022-08-18T10:54:04;11.77;;;4.70;;
11568;SDS011;5840;46.894;15.542;2022-08-18T10:56:39;7.65;;;4.20;;
11568;SDS011;5840;46.894;15.542;2022-08-18T10:59:14;7.82;;;4.25;;
11568;SDS011;5840;46.894;15.542;2022-08-18T11:01:59;9.02;;;4.30;;
11568;SDS011;5840;46.894;15.542;2022-08-18T11:04:35;9.40;;;4.30;;
11568;SDS011;5840;46.894;15.542;2022-08-18T11:07:10;7.03;;;4.22;;
11568;SDS011;5840;46.894;15.542;2022-08-18T11:09:43;8.57;;;4.32;;
11568;SDS011;5840;46.894;15.542;2022-08-18T11:12:11;6.95;;;4.60;;
11568;SDS011;5840;46.894;15.542;2022-08-18T11:14:51;7.00;;;3.88;;
11568;SDS011;5840;46.894;15.542;2022-08-18T11:17:45;10.13;;;4.30;;
11568;SDS011;5840;46.894;15.542;2022-08-18T11:20:28;9.23;;;4.53;;
11568;SDS011;5840;46.894;15.542;2022-08-18T11:22:59;7.97;;;4.60;;
11568;SDS011;5840;46.894;15.542;2022-08-18T11:25:28;9.38;;;4.70;;
11568;SDS011;5840;46.894;15.542;2022-08-18T11:27:58;9.48;;;4.40;;
11568;SDS011;5840;46.894;15.542;2022-08-18T11:30:27;7.28;;;4.50;;
11568;SDS011;5840;46.894;15.542;2022-08-18T11:32:56;8.82;;;4.97;;
11568;SDS011;5840;46.894;15.542;2022-08-18T11:35:26;11.43;;;4.88;;
11568;SDS011;5840;46.894;15.542;2022-08-18T11:37:56;6.75;;;4.28;;
11568;SDS011;5840;46.894;15.542;2022-08-18T11:40:30;8.88;;;4.97;;
11568;SDS011;5840;46.894;15.542;2022-08-18T11:43:04;8.70;;;4.78;;
11568;SDS011;5840;46.894;15.542;2022-08-18T11:45:49;11.32;;;4.95;;
11568;SDS011;5840;46.894;15.542;2022-08-18T11:48:19;11.10;;;5.30;;
11568;SDS011;5840;46.894;15.542;2022-08-18T11:50:49;8.50;;;5.00;;
11568;SDS011;5840;46.894;15.542;2022-08-18T11:53:36;9.20;;;4.95;;
11568;SDS011;5840;46.894;15.542;2022-08-18T11:56:23;8.88;;;4.95;;
11568;SDS011;5840;46.894;15.542;2022-08-18T11:58:53;8.93;;;4.93;;
11568;SDS011;5840;46.894;15.542;2022-08-18T12:01:28;9.90;;;5.15;;
11568;SDS011;5840;46.894;15.542;2022-08-18T12:03:58;11.77;;;4.88;;
11568;SDS011;5840;46.894;15.542;2022-08-18T12:06:35;9.30;;;5.43;;
11568;SDS011;5840;46.894;15.542;2022-08-18T12:09:06;9.48;;;5.28;;
11568;SDS011;5840;46.894;15.542;2022-08-18T12:11:47;9.73;;;4.70;;
11568;SDS011;5840;46.894;15.542;2022-08-18T12:14:18;14.32;;;5.55;;
11568;SDS011;5840;46.894;15.542;2022-08-18T12:16:46;11.30;;;5.68;;
11568;SDS011;5840;46.894;15.542;2022-08-18T12:19:14;9.85;;;5.07;;
11568;SDS011;5840;46.894;15.542;2022-08-18T12:21:42;12.50;;;5.07;;
11568;SDS011;5840;46.894;15.542;2022-08-18T12:24:16;12.68;;;5.78;;
11568;SDS011;5840;46.894;15.542;2022-08-18T12:26:46;8.48;;;5.57;;
11568;SDS011;5840;46.894;15.542;2022-08-18T12:29:13;13.80;;;5.63;;
11568;SDS011;5840;46.894;15.542;2022-08-18T12:31:42;14.02;;;5.95;;
11568;SDS011;5840;46.894;15.542;2022-08-18T12:34:09;11.13;;;5.57;;
11568;SDS011;5840;46.894;15.542;2022-08-18T12:36:36;11.88;;;5.40;;
11568;SDS011;5840;46.894;15.542;2022-08-18T12:39:03;12.25;;;5.57;;
11568;SDS011;5840;46.894;15.542;2022-08-18T12:41:32;12.60;;;5.72;;
11568;SDS011;5840;46.894;15.542;2022-08-18T12:43:59;9.13;;;5.50;;
11568;SDS011;5840;46.894;15.542;2022-08-18T12:46:26;9.70;;;5.50;;
11568;SDS011;5840;46.894;15.542;2022-08-18T12:48:55;10.38;;;5.53;;
11568;SDS011;5840;46.894;15.542;2022-08-18T12:51:22;8.10;;;5.10;;
11568;SDS011;5840;46.894;15.542;2022-08-18T12:53:49;9.13;;;5.47;;
11568;SDS011;5840;46.894;15.542;2022-08-18T12:56:19;11.98;;;5.85;;
11568;SDS011;5840;46.894;15.542;2022-08-18T12:58:50;11.30;;;5.85;;
11568;SDS011;5840;46.894;15.542;2022-08-18T13:01:18;8.95;;;5.70;;
11568;SDS011;5840;46.894;15.542;2022-08-18T13:03:46;9.80;;;5.13;;
11568;SDS011;5840;46.894;15.542;2022-08-18T13:06:13;10.70;;;5.43;;
11568;SDS011;5840;46.894;15.542;2022-08-18T13:08:40;10.35;;;5.28;;
11568;SDS011;5840;46.894;15.542;2022-08-18T13:11:07;9.15;;;5.72;;
11568;SDS011;5840;46.894;15.542;2022-08-18T13:13:35;11.68;;;5.35;;
11568;SDS011;5840;46.894;15.542;2022-08-18T13:16:05;12.48;;;5.28;;
11568;SDS011;5840;46.894;15.542;2022-08-18T13:18:33;10.98;;;5.40;;
11568;SDS011;5840;46.894;15.542;2022-08-18T13:21:01;10.38;;;5.65;;
11568;SDS011;5840;46.894;15.542;2022-08-18T13:23:28;10.40;;;5.80;;
11568;SDS011;5840;46.894;15.542;2022-08-18T13:25:57;11.82;;;5.50;;
11568;SDS011;5840;46.894;15.542;2022-08-18T13:28:26;12.63;;;5.82;;
11568;SDS011;5840;46.894;15.542;2022-08-18T13:30:53;10.40;;;5.60;;
11568;SDS011;5840;46.894;15.542;2022-08-18T13:33:21;10.97;;;5.70;;
11568;SDS011;5840;46.894;15.542;2022-08-18T13:35:49;13.23;;;5.97;;
11568;SDS011;5840;46.894;15.542;2022-08-18T13:38:17;12.03;;;5.27;;
11568;SDS011;5840;46.894;15.542;2022-08-18T13:40:47;13.80;;;5.40;;
11568;SDS011;5840;46.894;15.542;2022-08-18T13:43:14;14.47;;;5.80;;
11568;SDS011;5840;46.894;15.542;2022-08-18T13:45:45;15.00;;;5.53;;
11568;SDS011;5840;46.894;15.542;2022-08-18T13:48:14;15.77;;;6.20;;
11568;SDS011;5840;46.894;15.542;2022-08-18T13:50:42;13.20;;;6.10;;
11568;SDS011;5840;46.894;15.542;2022-08-18T13:53:11;10.80;;;5.20;;
11568;SDS011;5840;46.894;15.542;2022-08-18T13:55:40;12.37;;;5.50;;
11568;SDS011;5840;46.894;15.542;2022-08-18T13:58:07;17.23;;;5.63;;
11568;SDS011;5840;46.894;15.542;2022-08-18T14:00:34;11.33;;;5.37;;
11568;SDS011;5840;46.894;15.542;2022-08-18T14:03:01;11.53;;;5.37;;
11568;SDS011;5840;46.894;15.542;2022-08-18T14:05:28;11.00;;;5.50;;
11568;SDS011;5840;46.894;15.542;2022-08-18T14:07:57;16.23;;;5.67;;
11568;SDS011;5840;46.894;15.542;2022-08-18T14:10:24;32.10;;;5.97;;
11568;SDS011;5840;46.894;15.542;2022-08-18T14:12:52;16.43;;;3.50;;
11568;SDS011;5840;46.894;15.542;2022-08-18T14:15:21;13.27;;;3.37;;
11568;SDS011;5840;46.894;15.542;2022-08-18T14:17:48;9.90;;;2.53;;
11568;SDS011;5840;46.894;15.542;2022-08-18T14:20:16;7.53;;;2.70;;
11568;SDS011;5840;46.894;15.542;2022-08-18T14:23:02;11.63;;;3.37;;
11568;SDS011;5840;46.894;15.542;2022-08-18T14:25:47;10.10;;;2.87;;
11568;SDS011;5840;46.894;15.542;2022-08-18T14:28:31;7.00;;;2.97;;
11568;SDS011;5840;46.894;15.542;2022-08-18T14:30:59;9.83;;;2.90;;
11568;SDS011;5840;46.894;15.542;2022-08-18T14:33:28;6.20;;;3.00;;
11568;SDS011;5840;46.894;15.542;2022-08-18T14:35:56;5.63;;;2.73;;
11568;SDS011;5840;46.894;15.542;2022-08-18T14:38:24;5.80;;;2.60;;
11568;SDS011;5840;46.894;15.542;2022-08-18T14:40:51;8.00;;;2.90;;
11568;SDS011;5840;46.894;15.542;2022-08-18T14:43:19;4.70;;;2.90;;
11568;SDS011;5840;46.894;15.542;2022-08-18T14:45:46;5.90;;;3.13;;
11568;SDS011;5840;46.894;15.542;2022-08-18T14:48:14;6.53;;;3.23;;
11568;SDS011;5840;46.894;15.542;2022-08-18T14:50:44;5.83;;;3.13;;
11568;SDS011;5840;46.894;15.542;2022-08-18T14:53:12;7.93;;;3.10;;
11568;SDS011;5840;46.894;15.542;2022-08-18T14:55:40;5.90;;;3.10;;
11568;SDS011;5840;46.894;15.542;2022-08-18T14:58:08;4.70;;;2.77;;
11568;SDS011;5840;46.894;15.542;2022-08-18T15:00:35;6.27;;;3.30;;
11568;SDS011;5840;46.894;15.542;2022-08-18T15:03:02;5.30;;;2.87;;
11568;SDS011;5840;46.894;15.542;2022-08-18T15:05:30;9.00;;;3.77;;
11568;SDS011;5840;46.894;15.542;2022-08-18T15:07:58;5.53;;;2.97;;
11568;SDS011;5840;46.894;15.542;2022-08-18T15:10:27;8.57;;;2.70;;
11568;SDS011;5840;46.894;15.542;2022-08-18T15:12:56;5.07;;;2.87;;
11568;SDS011;5840;46.894;15.542;2022-08-18T15:15:25;4.57;;;2.80;;
11568;SDS011;5840;46.894;15.542;2022-08-18T15:17:54;4.60;;;2.60;;
11568;SDS011;5840;46.894;15.542;2022-08-18T15:20:23;8.83;;;2.80;;
11568;SDS011;5840;46.894;15.542;2022-08-18T15:22:50;5.50;;;2.73;;
11568;SDS011;5840;46.894;15.542;2022-08-18T15:25:35;4.37;;;2.73;;
11568;SDS011;5840;46.894;15.542;2022-08-18T15:28:10;2.90;;;2.50;;
11568;SDS011;5840;46.894;15.542;2022-08-18T15:30:41;3.90;;;2.60;;
11568;SDS011;5840;46.894;15.542;2022-08-18T15:33:09;5.10;;;2.70;;
11568;SDS011;5840;46.894;15.542;2022-08-18T15:35:37;5.57;;;2.53;;
11568;SDS011;5840;46.894;15.542;2022-08-18T15:38:06;3.80;;;2.30;;
11568;SDS011;5840;46.894;15.542;2022-08-18T15:40:33;5.57;;;2.60;;